sensor_id;sensor_type;location;lat;lon;timestamp;pressure;altitude;pressure_sealevel;temperature;humidity
42847;BME280;28495;49.916;14.536;2023-02-12T00:04:56;98451.28;;;3.62;72.27
42847;BME280;28495;49.916;14.536;2023-02-12T00:10:17;98444.53;;;3.58;72.54
42847;BME280;28495;49.916;14.536;2023-02-12T00:15:39;98446.19;;;3.61;72.88
42847;BME280;28495;49.916;14.536;2023-02-12T00:21:01;98443.59;;;3.61;72.16
42847;BME280;28495;49.916;14.536;2023-02-12T00:26:23;98443.44;;;3.65;72.89
42847;BME280;28495;49.916;14.536;2023-02-12T00:31:44;98452.00;;;3.66;73.02
42847;BME280;28495;49.916;14.536;2023-02-12T00:37:05;98454.75;;;3.61;72.11
42847;BME280;28495;49.916;14.536;2023-02-12T00:42:26;98457.34;;;3.61;72.27
42847;BME280;28495;49.916;14.536;2023-02-12T00:47:48;98471.50;;;3.49;72.59
42847;BME280;28495;49.916;14.536;2023-02-12T00:53:09;98469.72;;;3.51;72.41
42847;BME280;28495;49.916;14.536;2023-02-12T00:58:30;98467.09;;;3.53;72.34
42847;BME280;28495;49.916;14.536;2023-02-12T01:03:52;98477.34;;;3.55;72.38
42847;BME280;28495;49.916;14.536;2023-02-12T01:09:13;98486.50;;;3.63;72.82
42847;BME280;28495;49.916;14.536;2023-02-12T01:14:35;98482.97;;;3.66;72.46
42847;BME280;28495;49.916;14.536;2023-02-12T01:19:57;98477.78;;;3.68;72.86
42847;BME280;28495;49.916;14.536;2023-02-12T01:25:19;98482.75;;;3.72;72.37
42847;BME280;28495;49.916;14.536;2023-02-12T01:30:41;98486.22;;;3.71;72.66
42847;BME280;28495;49.916;14.536;2023-02-12T01:36:02;98479.19;;;3.76;72.91
42847;BME280;28495;49.916;14.536;2023-02-12T01:41:25;98495.38;;;3.80;72.35
42847;BME280;28495;49.916;14.536;2023-02-12T01:46:58;98496.13;;;3.84;72.97
42847;BME280;28495;49.916;14.536;2023-02-12T01:52:24;98493.00;;;3.74;72.35
42847;BME280;28495;49.916;14.536;2023-02-12T01:57:49;98492.28;;;3.70;72.36
42847;BME280;28495;49.916;14.536;2023-02-12T02:03:10;98501.09;;;3.64;72.15
42847;BME280;28495;49.916;14.536;2023-02-12T02:08:32;98501.91;;;3.65;72.43
42847;BME280;28495;49.916;14.536;2023-02-12T02:13:54;98491.94;;;3.79;72.97
42847;BME280;28495;49.916;14.536;2023-02-12T02:30:33;98497.91;;;3.81;72.79
42847;BME280;28495;49.916;14.536;2023-02-12T02:41:44;98498.69;;;3.84;72.97
42847;BME280;28495;49.916;14.536;2023-02-12T02:47:09;98495.31;;;3.81;72.73
42847;BME280;28495;49.916;14.536;2023-02-12T02:52:36;98503.81;;;3.85;72.95
42847;BME280;28495;49.916;14.536;2023-02-12T02:58:04;98504.19;;;3.98;73.22
42847;BME280;28495;49.916;14.536;2023-02-12T03:03:30;98505.50;;;4.10;73.15
42847;BME280;28495;49.916;14.536;2023-02-12T03:09:01;98511.84;;;4.01;72.71
42847;BME280;28495;49.916;14.536;2023-02-12T03:14:28;98509.19;;;4.03;72.32
42847;BME280;28495;49.916;14.536;2023-02-12T03:19:58;98530.69;;;4.03;72.55
42847;BME280;28495;49.916;14.536;2023-02-12T03:25:40;98532.38;;;4.04;72.71
42847;BME280;28495;49.916;14.536;2023-02-12T03:47:45;98539.69;;;3.93;72.76
42847;BME280;28495;49.916;14.536;2023-02-12T03:53:07;98539.63;;;3.94;72.66
42847;BME280;28495;49.916;14.536;2023-02-12T03:58:31;98544.84;;;3.93;72.59
42847;BME280;28495;49.916;14.536;2023-02-12T04:03:54;98564.47;;;3.97;72.96
42847;BME280;28495;49.916;14.536;2023-02-12T04:09:16;98578.84;;;4.04;72.97
42847;BME280;28495;49.916;14.536;2023-02-12T04:14:52;98572.84;;;4.04;72.09
42847;BME280;28495;49.916;14.536;2023-02-12T04:20:23;98584.91;;;4.03;72.87
42847;BME280;28495;49.916;14.536;2023-02-12T04:42:48;98602.81;;;4.08;72.77
42847;BME280;28495;49.916;14.536;2023-02-12T04:48:10;98602.63;;;4.14;72.81
42847;BME280;28495;49.916;14.536;2023-02-12T04:53:32;98606.13;;;4.11;72.89
42847;BME280;28495;49.916;14.536;2023-02-12T04:58:52;98616.34;;;4.15;72.46
42847;BME280;28495;49.916;14.536;2023-02-12T05:04:17;98609.59;;;4.10;72.22
42847;BME280;28495;49.916;14.536;2023-02-12T05:09:38;98620.47;;;3.95;72.17
42847;BME280;28495;49.916;14.536;2023-02-12T05:14:59;98618.56;;;4.00;72.79
42847;BME280;28495;49.916;14.536;2023-02-12T05:20:19;98624.38;;;4.07;72.43
42847;BME280;28495;49.916;14.536;2023-02-12T05:25:40;98624.97;;;4.15;72.58
42847;BME280;28495;49.916;14.536;2023-02-12T05:31:04;98625.78;;;4.16;72.46
42847;BME280;28495;49.916;14.536;2023-02-12T05:36:25;98625.88;;;4.12;72.50
42847;BME280;28495;49.916;14.536;2023-02-12T05:41:46;98651.78;;;4.11;72.26
42847;BME280;28495;49.916;14.536;2023-02-12T05:47:07;98645.63;;;4.15;72.78
42847;BME280;28495;49.916;14.536;2023-02-12T05:52:27;98655.19;;;4.11;72.18
42847;BME280;28495;49.916;14.536;2023-02-12T05:57:49;98658.00;;;4.05;72.60
42847;BME280;28495;49.916;14.536;2023-02-12T06:03:10;98646.28;;;3.95;72.25
42847;BME280;28495;49.916;14.536;2023-02-12T06:08:31;98656.34;;;4.03;72.39
42847;BME280;28495;49.916;14.536;2023-02-12T06:13:53;98668.50;;;4.01;72.50
42847;BME280;28495;49.916;14.536;2023-02-12T06:19:14;98668.75;;;3.93;72.32
42847;BME280;28495;49.916;14.536;2023-02-12T06:24:35;98670.53;;;3.91;71.93
42847;BME280;28495;49.916;14.536;2023-02-12T06:29:56;98684.38;;;3.88;72.44
42847;BME280;28495;49.916;14.536;2023-02-12T06:35:17;98700.09;;;3.80;71.82
42847;BME280;28495;49.916;14.536;2023-02-12T06:40:38;98710.78;;;3.96;73.22
42847;BME280;28495;49.916;14.536;2023-02-12T06:46:02;98711.41;;;4.03;72.23
42847;BME280;28495;49.916;14.536;2023-02-12T06:51:24;98716.88;;;3.94;72.31
42847;BME280;28495;49.916;14.536;2023-02-12T06:56:45;98718.81;;;3.87;72.21
42847;BME280;28495;49.916;14.536;2023-02-12T07:02:09;98718.94;;;3.84;72.37
42847;BME280;28495;49.916;14.536;2023-02-12T07:07:30;98721.38;;;3.89;72.64
42847;BME280;28495;49.916;14.536;2023-02-12T07:12:51;98738.19;;;4.01;72.89
42847;BME280;28495;49.916;14.536;2023-02-12T07:18:11;98737.34;;;4.00;72.43
42847;BME280;28495;49.916;14.536;2023-02-12T07:23:32;98743.03;;;4.10;72.86
42847;BME280;28495;49.916;14.536;2023-02-12T07:28:53;98740.31;;;4.15;72.58
42847;BME280;28495;49.916;14.536;2023-02-12T07:34:16;98748.53;;;4.26;72.35
42847;BME280;28495;49.916;14.536;2023-02-12T07:39:37;98750.72;;;4.38;72.67
42847;BME280;28495;49.916;14.536;2023-02-12T07:44:57;98755.78;;;4.15;71.81
42847;BME280;28495;49.916;14.536;2023-02-12T07:50:18;98771.06;;;3.95;72.40
42847;BME280;28495;49.916;14.536;2023-02-12T07:55:39;98759.88;;;3.95;72.95
42847;BME280;28495;49.916;14.536;2023-02-12T08:01:09;98770.94;;;4.25;73.53
42847;BME280;28495;49.916;14.536;2023-02-12T08:06:31;98770.31;;;4.44;73.08
42847;BME280;28495;49.916;14.536;2023-02-12T08:11:53;98779.28;;;4.59;73.76
42847;BME280;28495;49.916;14.536;2023-02-12T08:17:14;98779.59;;;4.75;73.52
42847;BME280;28495;49.916;14.536;2023-02-12T08:22:35;98781.59;;;4.67;72.88
42847;BME280;28495;49.916;14.536;2023-02-12T08:27:56;98782.94;;;4.53;72.72
42847;BME280;28495;49.916;14.536;2023-02-12T08:33:17;98793.06;;;4.60;72.82
42847;BME280;28495;49.916;14.536;2023-02-12T08:38:38;98789.69;;;4.57;73.28
42847;BME280;28495;49.916;14.536;2023-02-12T08:44:01;98796.28;;;4.66;73.09
42847;BME280;28495;49.916;14.536;2023-02-12T08:49:25;98797.84;;;4.70;73.22
42847;BME280;28495;49.916;14.536;2023-02-12T08:54:46;98800.13;;;4.80;73.60
42847;BME280;28495;49.916;14.536;2023-02-12T09:00:07;98795.84;;;4.79;72.90
42847;BME280;28495;49.916;14.536;2023-02-12T09:05:29;98809.75;;;4.75;72.86
42847;BME280;28495;49.916;14.536;2023-02-12T09:10:50;98814.13;;;4.72;72.79
42847;BME280;28495;49.916;14.536;2023-02-12T09:16:12;98817.41;;;4.78;73.46
42847;BME280;28495;49.916;14.536;2023-02-12T09:21:33;98827.22;;;4.68;73.21
42847;BME280;28495;49.916;14.536;2023-02-12T09:26:54;98832.84;;;4.54;72.99
42847;BME280;28495;49.916;14.536;2023-02-12T09:32:15;98833.78;;;4.53;73.11
42847;BME280;28495;49.916;14.536;2023-02-12T09:37:36;98846.44;;;4.61;73.10
42847;BME280;28495;49.916;14.536;2023-02-12T09:43:03;98849.84;;;4.61;73.45
42847;BME280;28495;49.916;14.536;2023-02-12T09:48:46;98851.44;;;4.65;73.29
42847;BME280;28495;49.916;14.536;2023-02-12T09:54:13;98850.41;;;4.71;73.37
42847;BME280;28495;49.916;14.536;2023-02-12T09:59:39;98857.03;;;4.78;73.70
42847;BME280;28495;49.916;14.536;2023-02-12T10:05:00;98863.84;;;4.81;73.56
42847;BME280;28495;49.916;14.536;2023-02-12T10:27:50;98872.88;;;4.94;73.41
42847;BME280;28495;49.916;14.536;2023-02-12T10:33:19;98872.19;;;4.89;73.41
42847;BME280;28495;49.916;14.536;2023-02-12T10:38:43;98869.66;;;4.87;73.12
42847;BME280;28495;49.916;14.536;2023-02-12T10:44:09;98865.38;;;4.86;73.67
42847;BME280;28495;49.916;14.536;2023-02-12T10:49:31;98865.16;;;4.93;73.45
42847;BME280;28495;49.916;14.536;2023-02-12T10:54:52;98859.22;;;4.91;73.24
42847;BME280;28495;49.916;14.536;2023-02-12T11:00:31;98852.97;;;4.96;73.63
42847;BME280;28495;49.916;14.536;2023-02-12T11:05:52;98858.09;;;4.98;73.44
42847;BME280;28495;49.916;14.536;2023-02-12T11:11:26;98861.53;;;4.98;73.61
42847;BME280;28495;49.916;14.536;2023-02-12T11:16:56;98856.59;;;5.16;73.74
42847;BME280;28495;49.916;14.536;2023-02-12T11:22:17;98853.06;;;5.18;73.96
42847;BME280;28495;49.916;14.536;2023-02-12T11:27:39;98851.28;;;5.21;73.64
42847;BME280;28495;49.916;14.536;2023-02-12T11:33:35;98859.81;;;5.46;74.32
42847;BME280;28495;49.916;14.536;2023-02-12T11:38:58;98862.91;;;5.56;74.04
42847;BME280;28495;49.916;14.536;2023-02-12T11:44:38;98854.09;;;5.62;73.49
42847;BME280;28495;49.916;14.536;2023-02-12T11:50:07;98849.72;;;5.62;73.98
42847;BME280;28495;49.916;14.536;2023-02-12T11:55:31;98848.56;;;5.47;73.16
42847;BME280;28495;49.916;14.536;2023-02-12T12:11:50;98836.22;;;5.78;73.39
42847;BME280;28495;49.916;14.536;2023-02-12T12:17:15;98842.84;;;5.85;72.77
42847;BME280;28495;49.916;14.536;2023-02-12T12:23:01;98841.28;;;5.81;73.13
42847;BME280;28495;49.916;14.536;2023-02-12T12:28:34;98843.16;;;5.77;72.69
42847;BME280;28495;49.916;14.536;2023-02-12T12:34:15;98838.75;;;5.79;72.67
42847;BME280;28495;49.916;14.536;2023-02-12T12:51:30;98827.13;;;5.90;72.25
42847;BME280;28495;49.916;14.536;2023-02-12T12:57:12;98824.91;;;5.80;72.04
42847;BME280;28495;49.916;14.536;2023-02-12T13:08:20;98819.84;;;5.77;72.14
42847;BME280;28495;49.916;14.536;2023-02-12T13:13:50;98820.03;;;5.73;71.94
42847;BME280;28495;49.916;14.536;2023-02-12T13:30:47;98824.94;;;5.79;71.89
42847;BME280;28495;49.916;14.536;2023-02-12T13:36:13;98826.53;;;5.83;72.03
42847;BME280;28495;49.916;14.536;2023-02-12T13:41:34;98820.34;;;5.87;71.85
42847;BME280;28495;49.916;14.536;2023-02-12T13:47:18;98820.03;;;5.95;72.02
42847;BME280;28495;49.916;14.536;2023-02-12T13:52:56;98825.16;;;5.97;72.03
42847;BME280;28495;49.916;14.536;2023-02-12T14:04:39;98812.00;;;6.66;71.83
42847;BME280;28495;49.916;14.536;2023-02-12T14:10:04;98814.09;;;6.36;71.38
42847;BME280;28495;49.916;14.536;2023-02-12T14:26:35;98825.06;;;6.00;71.28
42847;BME280;28495;49.916;14.536;2023-02-12T14:31:58;98825.94;;;5.99;71.36
42847;BME280;28495;49.916;14.536;2023-02-12T14:37:33;98816.28;;;6.04;71.50
42847;BME280;28495;49.916;14.536;2023-02-12T14:42:58;98823.44;;;6.19;71.77
42847;BME280;28495;49.916;14.536;2023-02-12T14:54:03;98815.28;;;7.30;73.02
42847;BME280;28495;49.916;14.536;2023-02-12T14:59:28;98814.50;;;7.09;71.91
42847;BME280;28495;49.916;14.536;2023-02-12T15:04:53;98801.75;;;6.84;71.34
42847;BME280;28495;49.916;14.536;2023-02-12T15:10:17;98815.56;;;6.64;70.87
42847;BME280;28495;49.916;14.536;2023-02-12T15:15:48;98817.75;;;6.32;70.76
42847;BME280;28495;49.916;14.536;2023-02-12T15:21:23;98825.75;;;6.25;70.96
42847;BME280;28495;49.916;14.536;2023-02-12T15:26:53;98827.16;;;6.12;70.97
42847;BME280;28495;49.916;14.536;2023-02-12T15:32:23;98828.19;;;6.08;71.30
42847;BME280;28495;49.916;14.536;2023-02-12T15:37:45;98833.25;;;6.11;71.25
42847;BME280;28495;49.916;14.536;2023-02-12T15:43:16;98830.84;;;6.06;71.23
42847;BME280;28495;49.916;14.536;2023-02-12T15:48:37;98842.19;;;6.04;71.28
42847;BME280;28495;49.916;14.536;2023-02-12T15:54:00;98834.53;;;6.01;71.08
42847;BME280;28495;49.916;14.536;2023-02-12T15:59:26;98832.34;;;6.12;71.55
42847;BME280;28495;49.916;14.536;2023-02-12T16:04:48;98836.84;;;6.29;71.74
42847;BME280;28495;49.916;14.536;2023-02-12T16:10:20;98831.66;;;6.29;71.25
42847;BME280;28495;49.916;14.536;2023-02-12T16:15:42;98828.94;;;6.32;71.54
42847;BME280;28495;49.916;14.536;2023-02-12T16:21:33;98820.94;;;6.38;71.55
42847;BME280;28495;49.916;14.536;2023-02-12T16:26:57;98823.25;;;6.24;70.94
42847;BME280;28495;49.916;14.536;2023-02-12T16:32:29;98826.19;;;6.15;70.93
42847;BME280;28495;49.916;14.536;2023-02-12T16:37:59;98832.16;;;6.17;71.29
42847;BME280;28495;49.916;14.536;2023-02-12T16:43:23;98840.59;;;6.22;71.25
42847;BME280;28495;49.916;14.536;2023-02-12T16:48:49;98840.16;;;5.88;70.55
42847;BME280;28495;49.916;14.536;2023-02-12T16:54:32;98845.78;;;5.76;70.76
42847;BME280;28495;49.916;14.536;2023-02-12T16:59:53;98843.78;;;5.83;70.89
42847;BME280;28495;49.916;14.536;2023-02-12T17:05:15;98847.06;;;5.88;71.10
42847;BME280;28495;49.916;14.536;2023-02-12T17:10:37;98848.72;;;5.67;70.25
42847;BME280;28495;49.916;14.536;2023-02-12T17:15:59;98848.44;;;5.74;70.90
42847;BME280;28495;49.916;14.536;2023-02-12T17:21:38;98855.09;;;5.82;70.67
42847;BME280;28495;49.916;14.536;2023-02-12T17:27:01;98861.03;;;5.84;70.73
42847;BME280;28495;49.916;14.536;2023-02-12T17:32:22;98864.47;;;5.84;70.99
42847;BME280;28495;49.916;14.536;2023-02-12T17:37:45;98860.06;;;5.86;70.67
42847;BME280;28495;49.916;14.536;2023-02-12T17:43:07;98858.59;;;5.79;70.79
42847;BME280;28495;49.916;14.536;2023-02-12T17:48:28;98861.13;;;5.58;70.11
42847;BME280;28495;49.916;14.536;2023-02-12T17:53:49;98857.41;;;5.42;70.44
42847;BME280;28495;49.916;14.536;2023-02-12T17:59:10;98861.03;;;6.07;73.31
42847;BME280;28495;49.916;14.536;2023-02-12T18:04:31;98866.69;;;6.17;71.39
42847;BME280;28495;49.916;14.536;2023-02-12T18:09:55;98868.34;;;5.96;70.93
42847;BME280;28495;49.916;14.536;2023-02-12T18:15:16;98873.56;;;6.61;72.56
42847;BME280;28495;49.916;14.536;2023-02-12T18:20:41;98872.66;;;6.42;70.98
42847;BME280;28495;49.916;14.536;2023-02-12T18:26:14;98882.72;;;6.27;70.85
42847;BME280;28495;49.916;14.536;2023-02-12T18:31:35;98883.47;;;6.07;70.31
42847;BME280;28495;49.916;14.536;2023-02-12T18:36:56;98879.47;;;5.98;70.95
42847;BME280;28495;49.916;14.536;2023-02-12T18:42:17;98871.84;;;5.71;70.22
42847;BME280;28495;49.916;14.536;2023-02-12T18:47:38;98873.31;;;5.55;70.59
42847;BME280;28495;49.916;14.536;2023-02-12T18:52:59;98872.66;;;5.49;70.94
42847;BME280;28495;49.916;14.536;2023-02-12T18:58:19;98870.28;;;5.43;70.62
42847;BME280;28495;49.916;14.536;2023-02-12T19:03:41;98866.13;;;5.39;70.85
42847;BME280;28495;49.916;14.536;2023-02-12T19:09:02;98858.00;;;5.25;70.41
42847;BME280;28495;49.916;14.536;2023-02-12T19:14:24;98868.69;;;5.15;70.56
42847;BME280;28495;49.916;14.536;2023-02-12T19:19:48;98879.88;;;5.16;71.08
42847;BME280;28495;49.916;14.536;2023-02-12T19:25:09;98874.38;;;5.25;70.94
42847;BME280;28495;49.916;14.536;2023-02-12T19:30:31;98881.88;;;5.08;70.89
42847;BME280;28495;49.916;14.536;2023-02-12T19:35:52;98881.72;;;5.12;71.09
42847;BME280;28495;49.916;14.536;2023-02-12T19:41:16;98888.06;;;5.03;70.79
42847;BME280;28495;49.916;14.536;2023-02-12T19:46:37;98882.88;;;5.03;71.07
42847;BME280;28495;49.916;14.536;2023-02-12T19:52:00;98877.50;;;5.10;71.78
42847;BME280;28495;49.916;14.536;2023-02-12T19:57:21;98881.00;;;5.09;71.36
42847;BME280;28495;49.916;14.536;2023-02-12T20:02:42;98886.34;;;5.04;71.50
42847;BME280;28495;49.916;14.536;2023-02-12T20:08:03;98891.78;;;4.96;71.26
42847;BME280;28495;49.916;14.536;2023-02-12T20:13:24;98889.06;;;4.99;71.35
42847;BME280;28495;49.916;14.536;2023-02-12T20:18:47;98893.13;;;5.07;71.46
42847;BME280;28495;49.916;14.536;2023-02-12T20:24:09;98895.72;;;5.07;71.04
42847;BME280;28495;49.916;14.536;2023-02-12T20:29:29;98897.59;;;5.01;71.69
42847;BME280;28495;49.916;14.536;2023-02-12T20:34:52;98895.25;;;4.95;71.19
42847;BME280;28495;49.916;14.536;2023-02-12T20:40:13;98901.22;;;4.97;71.70
42847;BME280;28495;49.916;14.536;2023-02-12T20:45:34;98903.41;;;5.08;71.47
42847;BME280;28495;49.916;14.536;2023-02-12T20:50:55;98905.88;;;5.13;71.99
42847;BME280;28495;49.916;14.536;2023-02-12T20:56:23;98901.34;;;5.18;71.80
42847;BME280;28495;49.916;14.536;2023-02-12T21:01:44;98898.78;;;5.18;71.86
42847;BME280;28495;49.916;14.536;2023-02-12T21:07:05;98888.91;;;5.04;71.25
42847;BME280;28495;49.916;14.536;2023-02-12T21:12:26;98893.47;;;4.97;71.70
42847;BME280;28495;49.916;14.536;2023-02-12T21:17:47;98885.53;;;5.02;71.91
42847;BME280;28495;49.916;14.536;2023-02-12T21:23:08;98893.97;;;5.07;71.48
42847;BME280;28495;49.916;14.536;2023-02-12T21:28:30;98886.53;;;5.23;72.03
42847;BME280;28495;49.916;14.536;2023-02-12T21:33:53;98885.84;;;5.18;72.11
42847;BME280;28495;49.916;14.536;2023-02-12T21:39:17;98887.34;;;5.00;71.53
42847;BME280;28495;49.916;14.536;2023-02-12T21:44:44;98888.03;;;5.05;72.12
42847;BME280;28495;49.916;14.536;2023-02-12T21:50:05;98889.44;;;5.14;72.14
42847;BME280;28495;49.916;14.536;2023-02-12T21:55:26;98890.06;;;4.95;71.81
42847;BME280;28495;49.916;14.536;2023-02-12T22:00:47;98886.59;;;4.96;71.92
42847;BME280;28495;49.916;14.536;2023-02-12T22:06:11;98889.59;;;5.09;72.57
42847;BME280;28495;49.916;14.536;2023-02-12T22:11:33;98892.81;;;5.16;71.65
42847;BME280;28495;49.916;14.536;2023-02-12T22:16:54;98898.41;;;5.03;71.68
42847;BME280;28495;49.916;14.536;2023-02-12T22:22:15;98901.97;;;4.99;71.63
42847;BME280;28495;49.916;14.536;2023-02-12T22:27:37;98895.00;;;5.03;71.89
42847;BME280;28495;49.916;14.536;2023-02-12T22:32:58;98895.34;;;4.92;71.41
42847;BME280;28495;49.916;14.536;2023-02-12T22:38:18;98899.16;;;4.82;71.82
42847;BME280;28495;49.916;14.536;2023-02-12T22:43:40;98891.13;;;4.90;71.95
42847;BME280;28495;49.916;14.536;2023-02-12T22:49:01;98899.91;;;5.11;72.44
42847;BME280;28495;49.916;14.536;2023-02-12T22:54:22;98899.19;;;5.06;71.76
42847;BME280;28495;49.916;14.536;2023-02-12T22:59:43;98899.31;;;5.02;72.48
42847;BME280;28495;49.916;14.536;2023-02-12T23:05:04;98904.53;;;5.01;72.38
42847;BME280;28495;49.916;14.536;2023-02-12T23:10:25;98896.81;;;4.99;72.36
42847;BME280;28495;49.916;14.536;2023-02-12T23:15:46;98896.03;;;4.97;72.36
42847;BME280;28495;49.916;14.536;2023-02-12T23:21:07;98894.50;;;4.92;71.77
42847;BME280;28495;49.916;14.536;2023-02-12T23:26:29;98895.78;;;5.05;72.34
42847;BME280;28495;49.916;14.536;2023-02-12T23:31:49;98889.72;;;5.06;72.42
42847;BME280;28495;49.916;14.536;2023-02-12T23:37:10;98886.88;;;5.14;72.61
42847;BME280;28495;49.916;14.536;2023-02-12T23:42:32;98899.28;;;5.04;72.29
42847;BME280;28495;49.916;14.536;2023-02-12T23:47:52;98889.06;;;4.99;72.01
42847;BME280;28495;49.916;14.536;2023-02-12T23:53:14;98892.06;;;5.12;72.67
42847;BME280;28495;49.916;14.536;2023-02-12T23:58:34;98892.66;;;5.21;72.43
